Time;durP1;ratioP1;P1;durP2;ratioP2;P2;SDS_P1;SDS_P2;PMS_P1;PMS_P2;Temp;Humidity;BMP_temperature;BMP_pressure;BME280_temperature;BME280_humidity;BME280_pressure;Samples;Min_cycle;Max_cycle;Signal;HPM_P1;HPM_P2
2023/01/17 00:00:56;;;;;;;2.67;1.15;;;3.90;99.90;;;;;;6189255;28;20126;-79
2023/01/17 00:10:40;;;;;;;1.60;1.30;;;4.00;99.90;;;;;;6177529;28;20505;-79
2023/01/17 00:13:43;;;;;;;6.35;2.55;;;4.00;99.90;;;;;;6177045;28;20055;-78
2023/01/17 00:16:44;;;;;;;3.95;1.55;;;4.10;99.90;;;;;;6175378;28;20045;-78
2023/01/17 00:26:26;;;;;;;2.88;2.30;;;4.00;99.90;;;;;;6201034;28;20496;-78
2023/01/17 01:34:42;;;;;;;2.50;1.45;;;3.70;99.90;;;;;;6229209;28;20042;-78
2023/01/17 01:37:44;;;;;;;2.50;1.58;;;3.70;99.90;;;;;;6226441;28;20056;-78
2023/01/17 01:40:47;;;;;;;3.80;2.28;;;3.70;99.90;;;;;;6202692;28;20046;-78
2023/01/17 01:43:51;;;;;;;4.93;1.50;;;3.80;99.90;;;;;;6193300;28;20050;-79
2023/01/17 01:46:53;;;;;;;7.32;1.92;;;3.80;99.90;;;;;;6181166;28;20053;-79
2023/01/17 01:50:00;;;;;;;3.10;1.75;;;3.80;99.90;;;;;;6181208;28;20057;-79
2023/01/17 01:53:04;;;;;;;3.30;1.92;;;3.80;99.90;;;;;;6181982;28;20051;-79
2023/01/17 01:56:09;;;;;;;2.47;2.28;;;3.90;99.90;;;;;;6180679;28;20058;-79
2023/01/17 01:59:15;;;;;;;3.05;1.70;;;3.90;99.90;;;;;;6180683;28;20043;-79
2023/01/17 02:02:17;;;;;;;2.45;1.80;;;3.80;99.90;;;;;;6186276;28;20499;-79
2023/01/17 02:05:22;;;;;;;2.22;2.03;;;3.80;99.90;;;;;;6201456;28;20046;-79
2023/01/17 02:08:24;;;;;;;2.85;1.30;;;3.80;99.90;;;;;;6204925;28;20057;-79
2023/01/17 02:11:26;;;;;;;1.92;1.75;;;3.80;99.90;;;;;;6204784;28;20049;-78
2023/01/17 02:14:28;;;;;;;2.53;1.83;;;3.70;99.90;;;;;;6204252;28;20500;-79
2023/01/17 02:17:46;;;;;;;2.20;1.85;;;3.70;99.90;;;;;;6205984;28;20065;-79
2023/01/17 02:21:22;;;;;;;2.33;1.45;;;3.60;99.90;;;;;;6205603;28;20046;-79
2023/01/17 02:24:50;;;;;;;4.13;1.38;;;3.60;99.90;;;;;;6205334;28;20524;-79
2023/01/17 02:28:09;;;;;;;1.58;1.30;;;3.50;99.90;;;;;;6204851;28;20043;-78
2023/01/17 02:31:17;;;;;;;3.38;2.75;;;3.40;99.90;;;;;;6205955;28;20047;-79
2023/01/17 02:34:24;;;;;;;1.77;1.67;;;3.40;99.90;;;;;;6205946;28;20054;-79
2023/01/17 02:37:33;;;;;;;1.57;1.40;;;3.40;99.90;;;;;;6205486;28;20330;-78
2023/01/17 02:40:40;;;;;;;2.15;1.50;;;3.40;99.90;;;;;;6204200;28;20384;-79
2023/01/17 02:43:42;;;;;;;1.85;1.73;;;3.40;99.90;;;;;;6205338;28;20559;-79
2023/01/17 02:46:47;;;;;;;4.07;2.30;;;3.50;99.90;;;;;;6206213;28;20042;-79
2023/01/17 02:49:48;;;;;;;2.33;1.58;;;3.50;99.90;;;;;;6206471;28;20515;-79
2023/01/17 02:53:01;;;;;;;5.20;1.73;;;3.50;99.90;;;;;;6208040;28;20527;-79
2023/01/17 02:56:13;;;;;;;4.10;1.40;;;3.60;99.90;;;;;;6207142;28;20424;-78
2023/01/17 02:59:25;;;;;;;3.17;2.03;;;3.60;99.90;;;;;;6214905;28;20056;-78
2023/01/17 03:02:38;;;;;;;2.88;1.70;;;3.70;99.90;;;;;;6206001;28;20053;-78
2023/01/17 03:05:43;;;;;;;2.80;2.33;;;3.70;99.90;;;;;;6193048;28;20051;-79
2023/01/17 03:08:48;;;;;;;3.33;1.90;;;3.70;99.90;;;;;;6180200;28;20050;-79
2023/01/17 03:11:49;;;;;;;2.58;1.90;;;3.70;99.90;;;;;;6178654;28;20050;-79
2023/01/17 03:14:51;;;;;;;6.63;1.98;;;3.70;99.90;;;;;;6179043;28;20047;-78
2023/01/17 03:17:58;;;;;;;3.10;1.60;;;3.70;99.90;;;;;;6179798;28;20117;-78
2023/01/17 03:21:01;;;;;;;1.93;1.47;;;3.70;99.90;;;;;;6197114;28;20050;-78
2023/01/17 03:24:02;;;;;;;1.55;1.45;;;3.70;99.90;;;;;;6203576;28;20049;-78
2023/01/17 03:27:04;;;;;;;5.18;1.40;;;3.70;99.90;;;;;;6202550;28;20042;-78
2023/01/17 03:30:07;;;;;;;3.35;1.67;;;3.70;99.90;;;;;;6201469;28;20407;-78
2023/01/17 03:33:10;;;;;;;3.15;1.77;;;3.80;99.90;;;;;;6203025;28;20142;-78
2023/01/17 03:36:12;;;;;;;1.52;1.42;;;3.70;99.90;;;;;;6202645;28;20061;-78
2023/01/17 03:39:13;;;;;;;1.60;1.33;;;3.80;99.90;;;;;;6200084;28;20042;-78
2023/01/17 03:42:15;;;;;;;1.75;1.38;;;3.80;99.90;;;;;;6180532;28;20050;-78
2023/01/17 03:45:17;;;;;;;3.75;1.55;;;3.70;99.90;;;;;;6188523;28;20057;-78
2023/01/17 03:48:20;;;;;;;6.65;1.85;;;3.70;99.90;;;;;;6202055;28;20050;-78
2023/01/17 03:51:22;;;;;;;2.78;1.90;;;3.70;99.90;;;;;;6201758;28;20046;-78
2023/01/17 03:54:24;;;;;;;2.40;1.48;;;3.70;99.90;;;;;;6202714;28;20057;-78
2023/01/17 03:57:25;;;;;;;1.88;1.20;;;3.70;99.90;;;;;;6202239;28;20050;-78
2023/01/17 04:00:27;;;;;;;1.95;1.40;;;3.70;99.90;;;;;;6202387;28;20042;-78
2023/01/17 04:03:30;;;;;;;2.88;1.25;;;3.70;99.90;;;;;;6202200;28;20124;-78
2023/01/17 04:06:32;;;;;;;2.75;1.73;;;3.70;99.90;;;;;;6192374;28;20046;-79
2023/01/17 04:09:34;;;;;;;2.47;1.60;;;3.60;99.90;;;;;;6201965;28;20050;-78
2023/01/17 04:12:35;;;;;;;4.03;1.80;;;3.50;99.90;;;;;;6202410;28;20042;-79
2023/01/17 04:15:37;;;;;;;3.85;3.45;;;3.50;99.90;;;;;;6202613;28;20053;-79
2023/01/17 04:18:40;;;;;;;2.78;1.80;;;3.40;99.90;;;;;;6199025;28;20050;-78
2023/01/17 04:21:42;;;;;;;2.00;1.85;;;3.30;99.90;;;;;;6199904;28;20057;-78
2023/01/17 04:24:45;;;;;;;3.85;2.47;;;3.30;99.90;;;;;;6199921;28;20740;-78
2023/01/17 04:27:46;;;;;;;4.57;1.83;;;3.20;99.90;;;;;;6198547;28;20506;-78
2023/01/17 04:30:48;;;;;;;2.00;1.90;;;3.10;99.90;;;;;;6199444;28;20050;-78
2023/01/17 04:33:51;;;;;;;3.97;1.42;;;3.10;99.90;;;;;;6202450;28;20535;-78
2023/01/17 04:36:53;;;;;;;2.13;1.75;;;3.00;99.90;;;;;;6202670;28;20050;-78
2023/01/17 04:39:54;;;;;;;3.20;1.38;;;3.00;99.90;;;;;;6201079;28;20057;-79
2023/01/17 04:42:56;;;;;;;3.15;1.75;;;2.90;99.90;;;;;;6202385;28;20050;-78
2023/01/17 04:45:58;;;;;;;2.88;1.83;;;2.90;99.90;;;;;;6203136;28;20518;-78
2023/01/17 04:49:01;;;;;;;1.83;1.30;;;2.90;99.90;;;;;;6200645;28;20051;-79
2023/01/17 04:52:03;;;;;;;6.25;1.20;;;2.80;99.90;;;;;;6202008;28;20053;-78
2023/01/17 04:55:06;;;;;;;3.08;1.45;;;2.80;99.90;;;;;;6204134;28;20046;-79
2023/01/17 04:58:08;;;;;;;2.53;1.67;;;2.80;99.90;;;;;;6201377;28;20055;-78
2023/01/17 05:01:09;;;;;;;1.70;1.60;;;2.70;99.90;;;;;;6201592;28;20042;-78
2023/01/17 05:04:12;;;;;;;4.45;1.20;;;2.60;99.90;;;;;;6201773;28;20062;-79
2023/01/17 05:07:14;;;;;;;2.00;1.67;;;2.60;99.90;;;;;;6194679;28;20051;-78
2023/01/17 05:10:16;;;;;;;1.52;1.30;;;2.60;99.90;;;;;;6178414;28;20103;-79
2023/01/17 05:13:18;;;;;;;1.85;1.50;;;2.50;99.90;;;;;;6180245;28;20047;-79
2023/01/17 05:16:20;;;;;;;1.92;0.98;;;2.40;99.90;;;;;;6176512;28;20050;-79
2023/01/17 05:19:24;;;;;;;1.77;1.63;;;2.40;99.90;;;;;;6180116;28;20050;-79
2023/01/17 05:22:26;;;;;;;2.40;2.20;;;2.30;99.90;;;;;;6202419;28;20042;-79
2023/01/17 05:25:30;;;;;;;2.45;2.22;;;2.20;99.90;;;;;;6202239;28;20054;-79
2023/01/17 05:28:32;;;;;;;3.67;2.13;;;2.20;99.90;;;;;;6204018;28;20500;-79
2023/01/17 05:31:34;;;;;;;4.65;1.88;;;2.10;99.90;;;;;;6207180;28;20046;-79
2023/01/17 05:34:37;;;;;;;2.17;1.85;;;2.00;99.90;;;;;;6208267;28;20058;-79
2023/01/17 05:37:38;;;;;;;2.20;1.75;;;2.00;99.90;;;;;;6206829;28;20500;-79
2023/01/17 05:40:40;;;;;;;2.65;1.73;;;1.90;99.90;;;;;;6207283;28;20054;-80
2023/01/17 05:43:42;;;;;;;3.42;1.90;;;1.90;99.90;;;;;;6206788;28;20159;-79
2023/01/17 05:46:43;;;;;;;5.35;2.20;;;1.90;99.90;;;;;;6190622;28;20046;-79
2023/01/17 05:49:46;;;;;;;5.85;4.07;;;1.90;99.90;;;;;;6202738;28;20050;-79
2023/01/17 05:52:53;;;;;;;3.22;2.08;;;1.90;99.90;;;;;;6207941;28;20050;-80
2023/01/17 05:55:55;;;;;;;3.63;2.00;;;1.80;99.90;;;;;;6206915;28;20050;-79
2023/01/17 05:58:56;;;;;;;3.75;3.38;;;1.80;99.90;;;;;;6205880;28;20057;-80
2023/01/17 06:01:58;;;;;;;4.75;1.90;;;1.80;99.90;;;;;;6216632;28;20046;-80
2023/01/17 06:05:01;;;;;;;2.53;2.33;;;1.80;99.90;;;;;;6206285;28;20053;-79
2023/01/17 06:08:03;;;;;;;3.90;1.95;;;1.90;99.90;;;;;;6198139;28;20493;-79
2023/01/17 06:11:05;;;;;;;3.50;1.30;;;1.90;99.90;;;;;;6204586;28;20504;-79
2023/01/17 06:14:07;;;;;;;5.15;1.65;;;1.90;99.90;;;;;;6206213;28;20050;-79
2023/01/17 06:17:09;;;;;;;5.68;2.30;;;2.00;99.90;;;;;;6203666;28;20511;-79
2023/01/17 06:20:12;;;;;;;2.78;2.00;;;2.00;99.90;;;;;;6203314;28;20046;-79
2023/01/17 06:23:14;;;;;;;5.15;2.25;;;2.00;99.90;;;;;;6204361;28;20046;-79
2023/01/17 06:26:16;;;;;;;3.05;2.03;;;2.00;99.90;;;;;;6203266;28;20050;-79
2023/01/17 06:29:18;;;;;;;2.75;1.92;;;2.00;99.90;;;;;;6202060;28;20388;-79
2023/01/17 06:32:19;;;;;;;3.40;2.35;;;2.00;99.90;;;;;;6201321;28;20049;-80
2023/01/17 06:35:23;;;;;;;5.85;3.47;;;2.10;99.90;;;;;;6201045;28;20049;-80
2023/01/17 06:38:26;;;;;;;7.07;2.80;;;2.10;99.90;;;;;;6199962;28;20050;-80
2023/01/17 06:41:27;;;;;;;5.22;1.80;;;2.20;99.90;;;;;;6200581;28;20065;-80
2023/01/17 06:44:29;;;;;;;7.38;5.55;;;2.20;99.90;;;;;;6201155;28;20057;-80
2023/01/17 06:47:31;;;;;;;72.88;35.40;;;2.20;99.90;;;;;;6200170;28;20050;-80
2023/01/17 06:50:34;;;;;;;55.30;32.70;;;2.30;99.90;;;;;;6200588;28;20057;-80
2023/01/17 06:53:36;;;;;;;26.05;15.57;;;2.30;99.90;;;;;;6200682;28;20058;-80
2023/01/17 06:56:37;;;;;;;16.15;8.57;;;2.40;99.90;;;;;;6200755;28;20550;-80
2023/01/17 06:59:39;;;;;;;6.40;4.93;;;2.40;99.90;;;;;;6200520;28;20046;-80
2023/01/17 07:02:41;;;;;;;6.07;4.32;;;2.50;99.90;;;;;;6201312;28;20150;-80
2023/01/17 07:05:44;;;;;;;7.97;5.97;;;2.50;99.90;;;;;;6200628;28;20488;-80
2023/01/17 07:08:46;;;;;;;10.60;5.82;;;2.60;99.90;;;;;;6197967;28;20053;-80
2023/01/17 07:11:47;;;;;;;6.72;5.40;;;2.60;99.90;;;;;;6199848;28;20390;-80
2023/01/17 07:14:49;;;;;;;8.40;6.28;;;2.60;99.90;;;;;;6200215;28;20452;-80
2023/01/17 07:17:51;;;;;;;7.03;5.43;;;2.70;99.90;;;;;;6200606;28;20058;-80
2023/01/17 07:20:54;;;;;;;7.05;3.42;;;2.70;99.90;;;;;;6200892;28;20057;-80
2023/01/17 07:23:56;;;;;;;3.90;2.83;;;2.80;99.90;;;;;;6199748;28;20054;-80
2023/01/17 07:26:57;;;;;;;5.63;3.35;;;2.80;99.90;;;;;;6200160;28;20514;-80
2023/01/17 07:29:59;;;;;;;4.57;4.15;;;2.80;99.90;;;;;;6198962;28;20042;-81
2023/01/17 07:33:01;;;;;;;7.05;5.43;;;2.90;99.90;;;;;;6210531;28;20070;-79
2023/01/17 07:36:08;;;;;;;9.02;4.13;;;2.90;99.90;;;;;;6197806;28;20057;-82
2023/01/17 07:39:10;;;;;;;15.57;7.35;;;3.00;99.90;;;;;;6199653;28;20042;-80
2023/01/17 07:42:12;;;;;;;9.65;5.75;;;3.00;99.90;;;;;;6200138;28;20047;-79
2023/01/17 07:45:15;;;;;;;5.57;4.15;;;3.10;99.90;;;;;;6194589;28;20050;-80
2023/01/17 07:48:17;;;;;;;9.55;6.60;;;3.10;99.90;;;;;;6174745;28;20054;-79
2023/01/17 07:51:20;;;;;;;5.95;4.45;;;3.20;99.90;;;;;;6174628;28;20047;-80
2023/01/17 07:54:22;;;;;;;6.72;4.07;;;3.20;99.90;;;;;;6175388;28;20054;-80
2023/01/17 07:57:24;;;;;;;4.07;3.33;;;3.20;99.90;;;;;;6177120;28;20054;-81
2023/01/17 08:00:26;;;;;;;5.65;3.08;;;3.20;99.90;;;;;;6183985;28;20112;-79
2023/01/17 08:03:31;;;;;;;4.93;3.00;;;3.20;99.90;;;;;;6200389;28;20053;-79
2023/01/17 08:06:34;;;;;;;4.65;3.33;;;3.20;99.90;;;;;;6200159;28;20412;-81
2023/01/17 08:09:35;;;;;;;6.57;4.28;;;3.20;99.90;;;;;;6195781;28;20054;-80
2023/01/17 08:12:37;;;;;;;6.80;3.40;;;3.20;99.90;;;;;;6177566;28;20043;-80
2023/01/17 08:15:39;;;;;;;4.65;3.35;;;3.20;99.90;;;;;;6177216;28;20436;-81
2023/01/17 08:18:41;;;;;;;7.20;4.20;;;3.20;99.90;;;;;;6203042;28;20037;-79
2023/01/17 08:21:44;;;;;;;8.88;3.88;;;3.20;99.90;;;;;;6227385;28;20053;-79
2023/01/17 08:24:46;;;;;;;6.30;3.47;;;3.20;99.90;;;;;;6226358;28;20042;-79
2023/01/17 08:27:48;;;;;;;9.82;6.57;;;3.30;99.90;;;;;;6225920;28;20049;-79
2023/01/17 08:30:49;;;;;;;7.30;5.93;;;3.30;99.90;;;;;;6217118;28;20048;-80
2023/01/17 08:33:51;;;;;;;6.82;3.75;;;3.40;99.90;;;;;;6203943;28;20117;-80
2023/01/17 08:36:54;;;;;;;8.02;3.30;;;3.40;99.90;;;;;;6203100;28;20054;-81
2023/01/17 08:39:56;;;;;;;11.52;4.95;;;3.50;99.90;;;;;;6202857;28;20058;-80
2023/01/17 08:42:59;;;;;;;4.07;3.53;;;3.60;99.90;;;;;;6203052;28;20046;-80
2023/01/17 08:46:01;;;;;;;10.02;7.20;;;3.70;99.90;;;;;;6203990;28;20050;-80
2023/01/17 08:49:03;;;;;;;6.97;3.72;;;3.80;99.90;;;;;;6203391;28;20056;-80
2023/01/17 08:52:06;;;;;;;7.15;4.30;;;4.00;99.90;;;;;;6204813;28;20043;-80
2023/01/17 08:55:10;;;;;;;20.50;10.05;;;4.10;99.90;;;;;;6204112;28;20053;-80
2023/01/17 08:58:12;;;;;;;7.80;4.57;;;4.20;99.90;;;;;;6204422;28;20053;-79
2023/01/17 09:01:14;;;;;;;211.45;162.25;;;4.40;99.90;;;;;;6204753;28;20078;-80
2023/01/17 09:04:16;;;;;;;28.05;25.45;;;4.50;99.90;;;;;;6206067;28;20046;-80
2023/01/17 09:07:20;;;;;;;10.00;8.52;;;4.50;99.90;;;;;;6207569;28;20046;-80
2023/01/17 09:10:22;;;;;;;5.95;2.88;;;4.60;99.90;;;;;;6207609;28;20050;-80
2023/01/17 09:13:24;;;;;;;5.97;2.45;;;4.60;99.90;;;;;;6207341;28;20051;-80
2023/01/17 09:16:26;;;;;;;3.03;2.38;;;4.50;99.90;;;;;;6206540;28;20048;-80
2023/01/17 09:19:28;;;;;;;3.30;1.90;;;4.50;99.90;;;;;;6206380;28;20053;-80
2023/01/17 09:22:31;;;;;;;8.35;3.70;;;4.60;99.90;;;;;;6213827;28;20050;-80
2023/01/17 09:25:32;;;;;;;4.47;1.95;;;4.70;99.90;;;;;;6228154;28;20057;-80
2023/01/17 09:28:39;;;;;;;3.20;1.83;;;4.90;99.90;;;;;;6230663;28;20054;-80
2023/01/17 09:31:41;;;;;;;5.10;2.03;;;5.10;99.90;;;;;;6213190;28;20468;-80
2023/01/17 09:34:43;;;;;;;2.42;1.90;;;5.50;99.90;;;;;;6203872;28;20053;-79
2023/01/17 09:37:48;;;;;;;1.70;1.58;;;5.80;99.90;;;;;;6204696;28;20054;-79
2023/01/17 09:40:50;;;;;;;2.78;2.58;;;6.10;99.90;;;;;;6205438;28;20046;-80
2023/01/17 09:44:06;;;;;;;3.47;1.40;;;6.40;99.90;;;;;;6203963;28;20053;-80
2023/01/17 09:47:17;;;;;;;2.45;1.48;;;6.60;99.90;;;;;;6204309;28;20054;-80
2023/01/17 09:50:27;;;;;;;5.57;1.65;;;6.80;99.90;;;;;;6180317;28;20047;-79
2023/01/17 09:53:33;;;;;;;4.53;1.88;;;7.10;99.90;;;;;;6181349;28;20053;-80
2023/01/17 09:56:39;;;;;;;2.42;2.20;;;7.30;99.90;;;;;;6180371;28;20054;-79
2023/01/17 09:59:53;;;;;;;1.73;1.02;;;7.40;99.90;;;;;;6180803;28;20050;-80
2023/01/17 10:03:09;;;;;;;5.53;1.30;;;7.50;99.90;;;;;;6205250;28;20673;-80
2023/01/17 10:06:23;;;;;;;3.40;1.67;;;7.70;99.90;;;;;;6206712;28;20054;-80
2023/01/17 10:09:44;;;;;;;2.38;1.20;;;7.90;99.90;;;;;;6207335;28;20428;-80
2023/01/17 10:12:53;;;;;;;2.35;1.08;;;8.10;99.90;;;;;;6206216;28;20165;-80
